Time;durP1;ratioP1;P1;durP2;ratioP2;P2;SDS_P1;SDS_P2;PMS_P1;PMS_P2;Temp;Humidity;BMP_temperature;BMP_pressure;BME280_temperature;BME280_humidity;BME280_pressure;Samples;Min_cycle;Max_cycle;Signal;HPM_P1;HPM_P2
2022/12/23 07:00:31;;;;;;;31.10;19.73;;;;;;;4.39;100.00;99910.43;1759377;80;21739;-40
2022/12/23 07:02:58;;;;;;;29.02;18.32;;;;;;;4.42;100.00;99902.31;1747190;80;20987;-41
2022/12/23 07:05:26;;;;;;;25.48;17.37;;;;;;;4.45;100.00;99894.58;1733006;80;21530;-50
2022/12/23 07:07:52;;;;;;;28.12;18.50;;;;;;;4.51;100.00;99897.70;1728763;81;21338;-41
2022/12/23 07:10:19;;;;;;;30.72;19.42;;;;;;;4.53;100.00;99895.61;1723594;81;21007;-41
2022/12/23 07:12:46;;;;;;;28.38;17.75;;;;;;;4.57;100.00;99891.76;1725838;81;21034;-41
2022/12/23 07:15:12;;;;;;;32.08;17.92;;;;;;;4.58;100.00;99899.58;1726306;80;21058;-41
2022/12/23 07:17:39;;;;;;;27.02;18.55;;;;;;;4.58;100.00;99902.56;1722575;81;21696;-50
2022/12/23 07:20:08;;;;;;;25.72;16.95;;;;;;;4.57;100.00;99901.70;1725694;80;21447;-50
2022/12/23 07:22:35;;;;;;;28.50;18.37;;;;;;;4.57;100.00;99898.23;1722234;81;21598;-49
2022/12/23 07:25:03;;;;;;;24.37;17.60;;;;;;;4.56;100.00;99897.36;1729102;80;21054;-49
2022/12/23 07:27:29;;;;;;;27.05;17.48;;;;;;;4.57;100.00;99896.94;1725144;80;21018;-40
2022/12/23 07:29:56;;;;;;;25.88;17.12;;;;;;;4.57;100.00;99899.53;1722213;80;22083;-41
2022/12/23 07:32:25;;;;;;;32.78;17.98;;;;;;;4.59;100.00;99893.97;1734780;81;21471;-51
2022/12/23 07:34:54;;;;;;;25.15;17.48;;;;;;;4.60;100.00;99888.81;1701557;81;21062;-40
2022/12/23 07:37:23;;;;;;;24.65;17.20;;;;;;;4.64;100.00;99900.08;1697887;82;21047;-41
2022/12/23 07:39:51;;;;;;;24.65;17.92;;;;;;;4.69;100.00;99903.63;1675400;83;21515;-50
2022/12/23 07:42:18;;;;;;;27.55;17.37;;;;;;;4.76;100.00;99899.02;1712010;81;21949;-48
2022/12/23 07:44:45;;;;;;;29.50;18.40;;;;;;;4.81;100.00;99901.24;1721229;80;21061;-48
2022/12/23 07:47:11;;;;;;;30.43;19.40;;;;;;;4.86;100.00;99887.07;1725074;80;21482;-51
2022/12/23 07:49:38;;;;;;;32.45;19.50;;;;;;;4.91;100.00;99888.89;1714209;81;21062;-41
2022/12/23 07:52:05;;;;;;;26.52;18.80;;;;;;;4.95;100.00;99890.70;1721751;81;21020;-41
2022/12/23 07:54:32;;;;;;;26.93;18.30;;;;;;;4.99;100.00;99889.91;1724157;81;21464;-49
2022/12/23 07:56:59;;;;;;;23.60;17.10;;;;;;;5.02;100.00;99889.94;1720508;81;21094;-40
2022/12/23 10:16:39;;;;;;;12.50;9.68;;;;;;;6.60;100.00;99830.46;1780626;79;22791;-48
2022/12/23 10:19:29;;;;;;;13.50;9.38;;;;;;;6.60;100.00;99821.80;1763219;80;21007;-47
2022/12/23 10:22:07;;;;;;;10.18;8.00;;;;;;;6.59;100.00;99826.13;1762768;80;21012;-48
2022/12/23 10:24:44;;;;;;;10.88;8.50;;;;;;;6.59;100.00;99826.13;1762984;80;21042;-48
2022/12/23 10:31:32;;;;;;;16.20;10.05;;;;;;;6.60;100.00;99819.19;1756949;80;21044;-48
2022/12/23 10:34:13;;;;;;;12.15;8.35;;;;;;;6.54;100.00;99826.51;1766557;80;21029;-48
2022/12/23 10:37:04;;;;;;;17.48;10.78;;;;;;;6.50;100.00;99827.80;1745753;80;21496;-47
2022/12/23 10:39:53;;;;;;;13.18;9.48;;;;;;;6.46;100.00;99824.72;1758597;81;21017;-42
2022/12/23 10:42:45;;;;;;;13.25;9.50;;;;;;;6.45;100.00;99819.08;1753697;80;21017;-48
2022/12/23 10:45:35;;;;;;;16.17;10.32;;;;;;;6.46;100.00;99822.11;1769519;81;21538;-48
2022/12/23 10:48:32;;;;;;;15.83;10.23;;;;;;;6.46;100.00;99831.21;1766815;80;21048;-48
2022/12/23 10:51:06;;;;;;;16.60;9.80;;;;;;;6.46;100.00;99825.58;1759093;80;21005;-48
2022/12/23 10:53:55;;;;;;;16.20;10.75;;;;;;;6.48;100.00;99822.98;1714652;83;21061;-39
2022/12/23 10:56:22;;;;;;;13.62;9.63;;;;;;;6.51;100.00;99820.44;1713051;82;21686;-39
2022/12/23 10:58:52;;;;;;;13.70;9.15;;;;;;;6.54;100.00;99814.81;1713109;83;21029;-47
2022/12/23 11:01:18;;;;;;;14.95;10.32;;;;;;;6.57;100.00;99820.48;1703231;82;21082;-48
2022/12/23 11:04:13;;;;;;;15.65;9.55;;;;;;;6.57;100.00;99810.95;1638043;86;21177;-48
2022/12/23 11:06:49;;;;;;;14.35;9.73;;;;;;;6.58;100.00;99809.22;1687334;85;21084;-40
2022/12/23 11:09:22;;;;;;;15.78;10.30;;;;;;;6.57;100.00;99803.16;1662227;85;21032;-48
2022/12/23 11:11:54;;;;;;;17.90;10.20;;;;;;;6.57;100.00;99804.45;1639504;87;21056;-41
2022/12/23 11:14:40;;;;;;;19.55;10.10;;;;;;;6.57;100.00;99799.69;1685610;85;21092;-48
2022/12/23 11:17:28;;;;;;;16.57;9.83;;;;;;;6.56;100.00;99793.63;1686128;85;21044;-41
2022/12/23 11:20:14;;;;;;;15.50;11.03;;;;;;;6.57;100.00;99790.59;1679116;83;21188;-42
2022/12/23 11:22:54;;;;;;;14.83;9.38;;;;;;;6.58;100.00;99797.09;1683097;85;21041;-39
2022/12/23 11:25:41;;;;;;;14.43;11.93;;;;;;;6.60;100.00;99791.47;1683206;85;21076;-40
2022/12/23 11:28:15;;;;;;;15.68;11.88;;;;;;;6.63;100.00;99790.64;1678775;83;20989;-41
2022/12/23 11:30:54;;;;;;;20.37;13.30;;;;;;;6.65;100.00;99794.11;1685790;85;21631;-40
2022/12/23 11:33:34;;;;;;;27.82;14.90;;;;;;;6.65;100.00;99795.41;1711543;84;21513;-48
2022/12/23 11:36:17;;;;;;;21.80;13.60;;;;;;;6.66;100.00;99792.81;1711353;84;21065;-50
2022/12/23 11:39:00;;;;;;;15.75;9.60;;;;;;;6.70;100.00;99788.52;1712296;84;21064;-40
2022/12/23 11:41:28;;;;;;;22.67;12.20;;;;;;;6.70;100.00;99786.36;1711458;84;21112;-49
2022/12/23 11:44:19;;;;;;;18.60;13.70;;;;;;;6.71;100.00;99785.48;1712067;84;21493;-48
2022/12/23 11:46:45;;;;;;;29.25;13.45;;;;;;;6.72;100.00;99788.52;1712257;84;21556;-49
2022/12/23 11:49:29;;;;;;;17.92;12.03;;;;;;;6.72;100.00;99788.09;1712546;84;21017;-41
2022/12/23 11:52:10;;;;;;;19.42;11.45;;;;;;;6.72;100.00;99785.49;1712893;84;21085;-40
2022/12/23 11:54:38;;;;;;;17.62;10.82;;;;;;;6.71;100.00;99783.76;1711846;84;21626;-40
2022/12/23 11:57:16;;;;;;;18.10;9.68;;;;;;;6.72;100.00;99782.02;1712257;84;21061;-50
2022/12/23 11:59:48;;;;;;;15.55;9.90;;;;;;;6.71;100.00;99786.79;1712557;84;21049;-49
2022/12/23 12:02:19;;;;;;;;;;;;;;;6.71;100.00;99794.16;1715344;84;21448;-40
2022/12/23 12:04:56;;;;;;;13.95;9.50;;;;;;;6.72;100.00;99788.52;1712550;84;20121;-50
2022/12/23 12:07:22;;;;;;;16.35;11.78;;;;;;;6.71;100.00;99783.76;1712619;84;21080;-40
2022/12/23 12:09:50;;;;;;;19.20;11.63;;;;;;;6.72;100.00;99788.52;1712591;84;22093;-41
2022/12/23 12:12:18;;;;;;;16.00;10.40;;;;;;;6.72;100.00;99791.99;1711758;84;21127;-41
2022/12/23 12:14:51;;;;;;;12.63;9.33;;;;;;;6.73;100.00;99801.99;1698183;83;21603;-48
2022/12/23 12:17:38;;;;;;;13.60;9.63;;;;;;;6.72;100.00;99802.39;1697571;84;22410;-40
2022/12/23 12:20:28;;;;;;;14.60;10.50;;;;;;;6.71;100.00;99798.48;1712193;84;21599;-41
2022/12/23 12:23:08;;;;;;;19.15;13.60;;;;;;;6.68;100.00;99794.16;1712635;84;21018;-43
2022/12/23 12:25:41;;;;;;;25.17;14.87;;;;;;;6.68;100.00;99794.16;1712278;84;21073;-40
2022/12/23 12:28:13;;;;;;;24.40;15.93;;;;;;;6.68;100.00;99801.95;1704889;84;21073;-39
2022/12/23 12:30:55;;;;;;;21.05;14.73;;;;;;;6.69;100.00;99797.62;1689939;85;21175;-49
2022/12/23 12:33:30;;;;;;;17.77;12.90;;;;;;;6.67;100.00;99802.81;1699617;84;21093;-49
2022/12/23 12:36:20;;;;;;;22.10;14.43;;;;;;;6.65;100.00;99806.68;1704086;83;21474;-48
2022/12/23 12:38:47;;;;;;;17.82;13.03;;;;;;;6.64;100.00;99806.67;1706997;84;21001;-49
2022/12/23 12:41:22;;;;;;;19.80;13.80;;;;;;;6.62;100.00;99804.07;1706454;84;21029;-49
2022/12/23 12:44:06;;;;;;;21.75;14.65;;;;;;;6.62;100.00;99809.70;1707250;84;20994;-40
2022/12/23 12:46:45;;;;;;;18.73;14.33;;;;;;;6.60;100.00;99812.27;1703814;84;21061;-41
2022/12/23 12:49:29;;;;;;;25.77;15.30;;;;;;;6.61;100.00;99821.83;1701430;84;21041;-41
2022/12/23 12:52:15;;;;;;;17.00;12.50;;;;;;;6.60;100.00;99805.77;1707051;84;21013;-40
2022/12/23 12:54:47;;;;;;;23.45;12.05;;;;;;;6.59;100.00;99818.76;1703240;84;21543;-39
2022/12/23 12:57:15;;;;;;;18.50;11.45;;;;;;;6.57;100.00;99809.66;1700733;84;21052;-39
2022/12/23 12:59:42;;;;;;;15.48;10.63;;;;;;;6.57;100.00;99816.59;1722304;82;21518;-40
2022/12/23 13:02:28;;;;;;;17.87;11.83;;;;;;;6.57;100.00;99820.48;1710707;84;21073;-40
2022/12/23 13:05:17;;;;;;;21.80;13.78;;;;;;;6.55;100.00;99807.48;1705164;84;21080;-41
2022/12/23 13:08:01;;;;;;;25.55;17.37;;;;;;;6.55;100.00;99808.78;1711304;84;21480;-41
2022/12/23 13:10:40;;;;;;;27.17;16.95;;;;;;;6.53;100.00;99810.48;1722848;83;21596;-40
2022/12/23 13:13:48;;;;;;;23.02;16.82;;;;;;;6.51;100.00;99810.91;1708515;84;21099;-40
2022/12/23 13:16:56;;;;;;;22.02;16.15;;;;;;;6.51;100.00;99811.34;1710176;83;21116;-41
